createdAt,value
2018-01-08T00:01:45.971Z,6.00
2018-01-08T00:04:13.474Z,6.00
2018-01-08T00:06:40.958Z,6.00
2018-01-08T00:09:09.232Z,6.00
2018-01-08T00:11:36.737Z,6.00
2018-01-08T00:14:04.206Z,6.00
2018-01-08T00:16:31.700Z,6.00
2018-01-08T00:18:59.192Z,6.00
2018-01-08T00:21:26.670Z,6.00
2018-01-08T00:23:54.147Z,6.00
2018-01-08T00:26:21.640Z,6.00
2018-01-08T00:28:49.879Z,6.00
2018-01-08T00:31:17.363Z,6.00
2018-01-08T00:33:44.823Z,6.00
2018-01-08T00:36:12.344Z,6.00
2018-01-08T00:38:39.817Z,6.00
2018-01-08T00:41:07.287Z,6.00
2018-01-08T00:43:34.751Z,6.00
2018-01-08T00:46:02.230Z,6.00
2018-01-08T00:48:30.463Z,6.00
2018-01-08T00:50:57.959Z,6.00
2018-01-08T00:53:26.196Z,6.00
2018-01-08T00:55:53.688Z,6.00
2018-01-08T00:58:21.935Z,6.00
2018-01-08T01:00:49.404Z,6.00
2018-01-08T01:03:16.870Z,6.00
2018-01-08T01:05:45.131Z,6.00
2018-01-08T01:08:12.605Z,6.00
2018-01-08T01:10:40.104Z,6.00
2018-01-08T01:13:07.577Z,6.00
2018-01-08T01:15:35.057Z,6.00
2018-01-08T01:18:02.552Z,6.00
2018-01-08T01:20:30.785Z,6.00
2018-01-08T01:22:58.280Z,6.00
2018-01-08T01:25:26.523Z,6.00
2018-01-08T01:27:54.003Z,6.00
2018-01-08T01:30:23.040Z,6.00
2018-01-08T01:32:50.522Z,6.00
2018-01-08T01:35:24.353Z,6.00
2018-01-08T01:37:51.921Z,6.00
2018-01-08T01:40:19.393Z,6.00
2018-01-08T01:42:47.631Z,6.00
2018-01-08T01:45:15.098Z,6.00
2018-01-08T01:47:42.582Z,6.00
2018-01-08T01:50:10.824Z,6.00
2018-01-08T01:52:38.421Z,6.00
2018-01-08T01:55:06.661Z,6.00
2018-01-08T01:57:35.056Z,6.00
2018-01-08T02:00:03.498Z,6.00
2018-01-08T02:02:31.007Z,6.00
2018-01-08T02:04:59.232Z,6.00
2018-01-08T02:07:27.737Z,6.00
2018-01-08T02:09:55.235Z,6.00
2018-01-08T02:12:23.511Z,6.00
2018-01-08T02:14:51.754Z,6.00
2018-01-08T02:17:19.999Z,6.10
2018-01-08T02:32:35.995Z,6.10
2018-01-08T02:35:03.467Z,6.00
2018-01-08T02:37:31.722Z,6.10
2018-01-08T02:39:59.204Z,6.10
2018-01-08T02:42:26.678Z,6.10
2018-01-08T02:44:54.496Z,6.10
2018-01-08T02:47:21.999Z,6.10
2018-01-08T02:52:43.119Z,6.00
2018-01-08T02:55:11.368Z,6.10
2018-01-08T02:57:38.862Z,6.10
2018-01-08T03:00:07.116Z,6.10
2018-01-08T03:02:34.613Z,6.10
2018-01-08T03:05:02.107Z,6.10
2018-01-08T03:07:29.576Z,6.10
2018-01-08T03:09:57.058Z,6.10
2018-01-08T03:12:24.523Z,6.10
2018-01-08T03:14:52.769Z,6.10
2018-01-08T03:17:20.247Z,6.00
2018-01-08T03:19:47.798Z,6.10
2018-01-08T03:22:16.035Z,6.10
2018-01-08T03:24:43.515Z,6.10
2018-01-08T03:27:10.998Z,6.10
2018-01-08T03:29:38.485Z,6.00
2018-01-08T03:32:05.948Z,6.10
2018-01-08T03:34:33.436Z,6.10
2018-01-08T03:37:00.924Z,6.10
2018-01-08T03:39:28.397Z,6.10
2018-01-08T03:41:56.624Z,6.10
2018-01-08T03:44:24.111Z,6.10
2018-01-08T03:46:51.607Z,6.00
2018-01-08T03:49:19.121Z,6.10
2018-01-08T03:51:46.587Z,6.10
2018-01-08T03:54:14.080Z,6.00
2018-01-08T03:56:41.555Z,6.10
2018-01-08T03:59:09.043Z,6.10
2018-01-08T04:01:36.527Z,6.10
2018-01-08T04:04:04.006Z,6.00
2018-01-08T04:06:32.232Z,6.10
2018-01-08T04:08:59.716Z,6.10
2018-01-08T04:11:28.885Z,6.10
2018-01-08T04:13:56.373Z,6.10
2018-01-08T04:16:23.868Z,6.10
2018-01-08T04:18:51.332Z,6.10
2018-01-08T04:21:18.836Z,6.10
2018-01-08T04:23:47.815Z,6.00
2018-01-08T04:26:15.291Z,6.00
2018-01-08T04:28:42.771Z,6.10
2018-01-08T04:31:11.023Z,6.00
2018-01-08T04:33:39.593Z,6.10
2018-01-08T04:36:07.077Z,6.00
2018-01-08T04:38:35.351Z,6.10
2018-01-08T04:41:02.832Z,6.00
2018-01-08T04:43:30.300Z,6.10
2018-01-08T04:45:57.789Z,6.00
2018-01-08T04:48:25.256Z,6.10
2018-01-08T04:50:52.755Z,6.00
2018-01-08T04:53:20.238Z,6.10
2018-01-08T04:55:47.721Z,6.00
2018-01-08T05:03:56.599Z,6.10
2018-01-08T05:06:24.090Z,6.00
2018-01-08T05:08:52.347Z,6.00
2018-01-08T05:11:19.834Z,6.00
2018-01-08T05:13:47.287Z,6.00
2018-01-08T05:16:14.780Z,6.10
2018-01-08T05:18:42.242Z,6.10
2018-01-08T05:21:09.735Z,6.00
2018-01-08T05:23:38.708Z,6.00
2018-01-08T05:26:06.197Z,6.00
2018-01-08T05:28:33.683Z,6.00
2018-01-08T05:31:01.176Z,6.10
2018-01-08T05:33:28.643Z,6.00
2018-01-08T05:35:56.897Z,6.10
2018-01-08T05:38:24.384Z,6.00
2018-01-08T05:40:53.362Z,6.00
2018-01-08T05:43:20.827Z,6.00
2018-01-08T05:45:48.327Z,6.10
2018-01-08T05:48:15.804Z,6.10
2018-01-08T05:50:43.292Z,6.10
2018-01-08T05:53:10.771Z,6.10
2018-01-08T05:55:38.226Z,6.10
2018-01-08T05:58:06.478Z,6.10
2018-01-08T06:00:33.948Z,6.10
2018-01-08T06:03:01.435Z,6.10
2018-01-08T06:05:29.671Z,6.10
2018-01-08T06:07:57.157Z,6.00
2018-01-08T06:10:25.416Z,6.00
2018-01-08T06:12:52.908Z,6.00
2018-01-08T06:15:21.157Z,6.10
2018-01-08T06:17:48.630Z,6.00
2018-01-08T06:20:16.864Z,6.00
2018-01-08T06:22:44.344Z,6.00
2018-01-08T06:25:12.570Z,6.10
2018-01-08T06:27:40.067Z,6.00
2018-01-08T06:30:07.533Z,6.10
2018-01-08T06:32:38.163Z,6.10
2018-01-08T06:35:05.668Z,6.10
2018-01-08T06:37:33.190Z,6.10
2018-01-08T06:40:00.668Z,6.10
2018-01-08T06:42:28.911Z,6.00
2018-01-08T06:44:56.387Z,6.00
2018-01-08T06:47:24.642Z,6.00
2018-01-08T06:49:52.107Z,6.00
2018-01-08T06:52:19.617Z,6.10
2018-01-08T06:54:47.087Z,6.10
2018-01-08T06:57:14.587Z,6.00
2018-01-08T06:59:42.051Z,6.00
2018-01-08T07:02:10.300Z,6.10
2018-01-08T07:04:37.775Z,6.10
2018-01-08T07:07:05.273Z,6.10
2018-01-08T07:09:32.747Z,6.10
2018-01-08T07:12:00.222Z,6.10
2018-01-08T07:14:27.702Z,6.00
2018-01-08T07:16:55.260Z,6.10
2018-01-08T07:19:22.739Z,6.00
2018-01-08T07:21:50.975Z,6.00
2018-01-08T07:24:18.456Z,6.00
2018-01-08T07:26:45.975Z,6.00
2018-01-08T07:29:14.245Z,6.00
2018-01-08T07:31:41.684Z,6.00
2018-01-08T07:34:09.167Z,6.10
2018-01-08T07:36:36.652Z,6.00
2018-01-08T07:39:04.146Z,6.00
2018-01-08T07:41:32.401Z,6.00
2018-01-08T07:44:01.411Z,6.00
2018-01-08T07:46:29.639Z,6.00
2018-01-08T07:48:57.147Z,6.00
2018-01-08T07:51:25.384Z,6.00
2018-01-08T07:53:52.863Z,6.00
2018-01-08T07:56:20.350Z,6.10
2018-01-08T07:58:47.835Z,6.10
2018-01-08T08:01:15.324Z,6.10
2018-01-08T08:03:42.819Z,6.10
2018-01-08T08:06:10.304Z,6.10
2018-01-08T08:08:37.808Z,6.10
2018-01-08T08:11:06.049Z,6.10
2018-01-08T08:13:33.519Z,6.10
2018-01-08T08:16:01.008Z,6.10
2018-01-08T08:18:28.576Z,6.20
2018-01-08T08:20:56.822Z,6.20
2018-01-08T08:23:24.293Z,6.20
2018-01-08T08:25:51.783Z,6.20
2018-01-08T08:28:19.245Z,6.20
2018-01-08T08:30:46.728Z,6.20
2018-01-08T08:33:14.210Z,6.20
2018-01-08T08:35:41.702Z,6.20
2018-01-08T08:38:09.959Z,6.20
2018-01-08T08:40:37.434Z,6.20
2018-01-08T08:43:05.684Z,6.30
2018-01-08T08:45:33.151Z,6.30
2018-01-08T08:48:00.627Z,6.30
2018-01-08T08:50:28.878Z,6.30
2018-01-08T08:52:56.356Z,6.30
2018-01-08T08:55:24.628Z,6.40
2018-01-08T08:57:52.885Z,6.40
2018-01-08T09:00:20.374Z,6.40
2018-01-08T09:02:49.463Z,6.50
2018-01-08T09:05:18.081Z,6.60
2018-01-08T09:07:45.549Z,6.50
2018-01-08T09:10:13.031Z,6.60
2018-01-08T09:12:40.500Z,6.60
2018-01-08T09:15:08.760Z,6.60
2018-01-08T09:17:36.219Z,6.60
2018-01-08T09:20:03.699Z,6.60
2018-01-08T09:22:31.179Z,6.60
2018-01-08T09:24:59.424Z,6.60
2018-01-08T09:27:26.935Z,6.60
2018-01-08T09:29:54.422Z,6.60
2018-01-08T09:32:21.884Z,6.60
2018-01-08T09:34:49.383Z,6.60
2018-01-08T09:37:17.628Z,6.50
2018-01-08T09:39:45.104Z,6.50
2018-01-08T09:42:13.377Z,6.50
2018-01-08T09:44:41.623Z,6.50
2018-01-08T09:47:09.099Z,6.50
2018-01-08T09:49:36.613Z,6.50
2018-01-08T09:52:04.832Z,6.50
2018-01-08T09:54:32.308Z,6.50
2018-01-08T09:57:00.552Z,6.50
2018-01-08T09:59:28.953Z,6.50
2018-01-08T10:01:57.219Z,6.50
2018-01-08T10:04:36.583Z,6.50
2018-01-08T10:07:16.794Z,6.50
2018-01-08T10:09:56.227Z,6.50
2018-01-08T10:12:35.664Z,6.50
2018-01-08T10:15:15.111Z,6.60
2018-01-08T10:17:54.520Z,6.60
2018-01-08T10:20:22.000Z,6.60
2018-01-08T10:22:49.481Z,6.60
2018-01-08T10:25:16.973Z,6.60
2018-01-08T10:27:44.446Z,6.60
2018-01-08T10:30:11.923Z,6.60
2018-01-08T10:32:39.418Z,6.50
2018-01-08T10:35:07.729Z,6.50
2018-01-08T10:37:35.220Z,6.50
2018-01-08T10:40:02.716Z,6.40
2018-01-08T10:42:36.708Z,6.50
2018-01-08T10:45:09.985Z,6.40
2018-01-08T10:47:43.186Z,6.50
2018-01-08T10:50:16.252Z,6.50
2018-01-08T10:52:53.675Z,6.50
2018-01-08T10:55:21.141Z,6.40
2018-01-08T10:57:49.499Z,6.40
2018-01-08T11:00:16.966Z,6.40
2018-01-08T11:02:50.251Z,6.50
2018-01-08T11:05:17.785Z,6.50
2018-01-08T11:07:45.281Z,6.40
2018-01-08T11:10:12.754Z,6.40
2018-01-08T11:12:50.703Z,6.50
2018-01-08T11:15:18.944Z,6.50
2018-01-08T11:17:47.196Z,6.60
2018-01-08T11:20:14.669Z,6.60
2018-01-08T11:22:42.925Z,6.70
2018-01-08T11:25:10.423Z,6.70
2018-01-08T11:27:37.908Z,6.70
2018-01-08T11:30:06.712Z,6.70
2018-01-08T11:32:35.124Z,6.70
2018-01-08T11:35:03.359Z,6.70
2018-01-08T11:37:30.847Z,6.70
2018-01-08T11:39:58.314Z,6.70
2018-01-08T11:42:26.563Z,6.80
2018-01-08T11:44:57.203Z,6.80
2018-01-08T11:47:24.680Z,6.80
2018-01-08T11:49:52.930Z,6.80
2018-01-08T11:52:20.416Z,6.80
2018-01-08T11:54:48.659Z,6.80
2018-01-08T11:57:16.193Z,6.80
2018-01-08T11:59:43.667Z,6.80
2018-01-08T12:02:11.148Z,6.80
2018-01-08T12:04:38.624Z,6.80
2018-01-08T12:07:06.882Z,6.80
2018-01-08T12:09:35.343Z,6.80
2018-01-08T12:12:02.893Z,6.80
2018-01-08T12:14:30.326Z,6.80
2018-01-08T12:16:57.822Z,6.80
2018-01-08T12:19:25.302Z,6.80
2018-01-08T12:21:53.562Z,6.90
2018-01-08T12:24:21.028Z,6.90
2018-01-08T12:26:50.039Z,7.00
2018-01-08T12:29:18.283Z,7.00
2018-01-08T12:31:45.766Z,7.00
2018-01-08T12:34:13.264Z,7.10
2018-01-08T12:36:40.745Z,7.20
2018-01-08T12:39:08.241Z,7.20
2018-01-08T12:41:43.480Z,7.20
2018-01-08T12:44:10.979Z,7.30
2018-01-08T12:46:41.499Z,7.40
2018-01-08T12:49:08.972Z,7.50
2018-01-08T12:51:36.461Z,7.60
2018-01-08T12:54:03.975Z,7.70
2018-01-08T12:56:31.441Z,7.70
2018-01-08T12:58:58.956Z,7.70
2018-01-08T13:01:26.419Z,7.80
2018-01-08T13:03:54.681Z,7.90
2018-01-08T13:06:22.167Z,7.90
2018-01-08T13:08:50.439Z,8.00
2018-01-08T13:11:18.670Z,7.90
2018-01-08T13:13:46.771Z,7.90
2018-01-08T13:16:14.268Z,7.90
2018-01-08T13:18:41.748Z,7.90
2018-01-08T13:21:09.212Z,7.80
2018-01-08T13:23:36.685Z,7.60
2018-01-08T13:26:04.153Z,7.60
2018-01-08T13:28:31.635Z,7.60
2018-01-08T13:30:59.884Z,7.50
2018-01-08T13:33:27.367Z,7.50
2018-01-08T13:35:55.607Z,7.50
2018-01-08T13:38:23.855Z,7.60
2018-01-08T13:40:51.390Z,7.60
2018-01-08T13:43:18.896Z,7.50
2018-01-08T13:45:47.332Z,7.50
2018-01-08T13:48:14.819Z,7.50
2018-01-08T13:50:42.300Z,7.40
2018-01-08T13:53:11.279Z,7.40
2018-01-08T13:55:38.764Z,7.40
2018-01-08T13:58:06.247Z,7.40
2018-01-08T14:00:33.735Z,7.40
2018-01-08T14:03:01.207Z,7.30
2018-01-08T14:05:28.706Z,7.20
2018-01-08T14:07:56.953Z,7.10
2018-01-08T14:10:24.435Z,7.10
2018-01-08T14:12:52.675Z,7.00
2018-01-08T14:15:20.159Z,7.10
2018-01-08T14:17:47.640Z,7.00
2018-01-08T14:20:16.757Z,6.90
2018-01-08T14:22:45.005Z,6.80
2018-01-08T14:25:13.243Z,6.80
2018-01-08T14:27:40.941Z,6.80
2018-01-08T14:30:09.206Z,6.80
2018-01-08T14:32:37.461Z,6.80
2018-01-08T14:35:05.046Z,6.80
2018-01-08T14:37:33.312Z,6.70
2018-01-08T14:40:01.572Z,6.70
2018-01-08T14:42:29.052Z,6.70
2018-01-08T14:44:56.540Z,6.60
2018-01-08T14:47:24.014Z,6.60
2018-01-08T14:49:51.503Z,6.60
2018-01-08T14:52:18.986Z,6.60
2018-01-08T14:54:46.459Z,6.60
2018-01-08T14:57:14.702Z,6.50
2018-01-08T14:59:42.211Z,6.50
2018-01-08T15:02:09.715Z,6.50
2018-01-08T15:04:37.180Z,6.50
2018-01-08T15:07:04.657Z,6.50
2018-01-08T15:09:32.883Z,6.40
2018-01-08T15:12:00.380Z,6.40
2018-01-08T15:14:27.854Z,6.40
2018-01-08T15:16:56.112Z,6.40
2018-01-08T15:19:24.368Z,6.40
2018-01-08T15:21:51.847Z,6.30
2018-01-08T15:24:19.320Z,6.40
2018-01-08T15:26:47.566Z,6.30
2018-01-08T15:29:15.047Z,6.30
2018-01-08T15:31:43.289Z,6.30
2018-01-08T15:34:10.769Z,6.20
2018-01-08T15:36:38.248Z,6.20
2018-01-08T15:39:06.492Z,6.20
2018-01-08T15:41:34.836Z,6.20
2018-01-08T15:44:03.061Z,6.20
2018-01-08T15:46:30.543Z,6.20
2018-01-08T15:48:58.035Z,6.10
2018-01-08T15:51:25.533Z,6.20
2018-01-08T15:53:53.032Z,6.10
2018-01-08T15:56:20.525Z,6.10
2018-01-08T15:58:48.017Z,6.10
2018-01-08T16:01:16.260Z,6.20
2018-01-08T16:03:44.676Z,6.10
2018-01-08T16:06:12.926Z,6.20
2018-01-08T16:08:40.411Z,6.20
2018-01-08T16:11:08.648Z,6.10
2018-01-08T16:13:36.139Z,6.10
2018-01-08T16:16:04.503Z,6.20
2018-01-08T16:18:31.982Z,6.20
2018-01-08T16:21:00.222Z,6.10
2018-01-08T16:23:27.695Z,6.10
2018-01-08T16:25:55.183Z,6.10
2018-01-08T16:28:22.670Z,6.10
2018-01-08T16:30:50.139Z,6.10
2018-01-08T16:33:17.628Z,6.10
2018-01-08T16:35:45.103Z,6.10
2018-01-08T16:38:13.362Z,6.10
2018-01-08T16:40:40.844Z,6.10
2018-01-08T16:43:09.094Z,6.10
2018-01-08T16:45:37.407Z,6.10
2018-01-08T16:48:04.903Z,6.10
2018-01-08T16:50:32.397Z,6.10
2018-01-08T16:53:00.685Z,6.10
2018-01-08T16:55:28.936Z,6.10
2018-01-08T16:57:56.431Z,6.10
2018-01-08T17:00:23.914Z,6.10
2018-01-08T17:02:51.415Z,6.00
2018-01-08T17:05:18.873Z,6.00
2018-01-08T17:07:47.156Z,6.10
2018-01-08T17:10:15.414Z,6.10
2018-01-08T17:12:42.887Z,6.10
2018-01-08T17:15:10.387Z,6.10
2018-01-08T17:17:37.861Z,6.10
2018-01-08T17:20:05.336Z,6.00
2018-01-08T17:22:32.807Z,6.10
2018-01-08T17:25:00.325Z,6.10
2018-01-08T17:27:27.797Z,6.10
2018-01-08T17:29:55.317Z,6.10
2018-01-08T17:32:22.860Z,6.10
2018-01-08T17:34:51.152Z,6.00
2018-01-08T17:37:19.420Z,6.00
2018-01-08T17:39:47.697Z,6.10
2018-01-08T17:42:15.955Z,6.10
2018-01-08T17:44:43.445Z,6.10
2018-01-08T17:47:10.953Z,6.10
2018-01-08T17:49:38.477Z,6.00
2018-01-08T17:52:05.953Z,6.00
2018-01-08T17:54:33.432Z,6.00
2018-01-08T17:57:00.937Z,6.00
2018-01-08T17:59:28.436Z,6.10
2018-01-08T18:01:55.911Z,6.00
2018-01-08T18:04:24.441Z,6.00
2018-01-08T18:06:51.903Z,6.00
2018-01-08T18:09:19.388Z,6.00
2018-01-08T18:11:46.886Z,6.00
2018-01-08T18:14:15.139Z,6.00
2018-01-08T18:16:43.439Z,6.00
2018-01-08T18:19:11.687Z,6.00
2018-01-08T18:21:39.149Z,6.00
2018-01-08T18:24:06.675Z,6.00
2018-01-08T18:26:34.140Z,6.00
2018-01-08T18:29:01.607Z,6.00
2018-01-08T18:31:29.092Z,6.00
2018-01-08T18:33:57.350Z,6.00
2018-01-08T18:36:25.661Z,6.00
2018-01-08T18:38:53.958Z,5.90
2018-01-08T18:41:21.530Z,5.90
2018-01-08T18:43:58.934Z,5.90
2018-01-08T18:46:26.472Z,5.90
2018-01-08T18:48:53.983Z,5.90
2018-01-08T18:51:21.602Z,5.80
2018-01-08T18:53:49.109Z,5.80
2018-01-08T18:56:16.643Z,5.80
2018-01-08T18:58:44.111Z,5.70
2018-01-08T19:01:11.632Z,5.70
2018-01-08T19:03:39.094Z,5.70
2018-01-08T19:06:06.657Z,5.60
2018-01-08T19:08:34.174Z,5.60
2018-01-08T19:11:02.407Z,5.50
2018-01-08T19:13:29.871Z,5.50
2018-01-08T19:15:57.362Z,5.40
2018-01-08T19:18:25.655Z,5.40
2018-01-08T19:20:53.189Z,5.40
2018-01-08T19:23:20.690Z,5.40
2018-01-08T19:25:48.161Z,5.40
2018-01-08T19:28:15.635Z,5.40
2018-01-08T19:30:43.100Z,5.30
2018-01-08T19:33:10.605Z,5.30
2018-01-08T19:35:38.133Z,5.30
2018-01-08T19:38:05.600Z,5.30
2018-01-08T19:40:33.915Z,5.20
2018-01-08T19:43:02.771Z,5.20
2018-01-08T19:45:31.006Z,5.20
2018-01-08T19:47:58.589Z,5.20
2018-01-08T19:53:19.191Z,5.20
2018-01-08T19:55:46.740Z,5.20
2018-01-08T19:58:14.207Z,5.10
2018-01-08T20:00:41.838Z,5.10
2018-01-08T20:03:10.304Z,5.10
2018-01-08T20:05:37.787Z,5.10
2018-01-08T20:08:05.333Z,5.00
2018-01-08T20:10:32.841Z,5.00
2018-01-08T20:13:00.394Z,5.00
2018-01-08T20:15:27.867Z,5.00
2018-01-08T20:17:56.187Z,5.00
2018-01-08T20:20:23.660Z,4.90
2018-01-08T20:22:51.874Z,4.90
2018-01-08T20:25:21.142Z,4.90
2018-01-08T20:27:48.695Z,4.80
2018-01-08T20:30:16.215Z,4.80
2018-01-08T20:32:43.763Z,4.80
2018-01-08T20:35:12.076Z,4.80
2018-01-08T20:37:39.558Z,4.80
2018-01-08T20:40:07.024Z,4.80
2018-01-08T20:42:34.550Z,4.70
2018-01-08T20:45:02.058Z,4.80
2018-01-08T20:47:30.687Z,4.60
2018-01-08T20:49:58.214Z,4.60
2018-01-08T20:52:26.501Z,4.70
2018-01-08T20:54:53.976Z,4.60
2018-01-08T20:57:21.503Z,4.60
2018-01-08T20:59:49.819Z,4.60
2018-01-08T21:02:17.355Z,4.60
2018-01-08T21:04:45.637Z,4.60
2018-01-08T21:07:13.169Z,4.60
2018-01-08T21:09:41.450Z,4.60
2018-01-08T21:12:09.742Z,4.60
2018-01-08T21:14:38.019Z,4.50
2018-01-08T21:17:06.307Z,4.40
2018-01-08T21:19:33.827Z,4.40
2018-01-08T21:22:01.361Z,4.30
2018-01-08T21:24:28.918Z,4.30
2018-01-08T21:26:57.039Z,4.30
2018-01-08T21:29:25.322Z,4.40
2018-01-08T21:31:53.613Z,4.40
2018-01-08T21:34:21.146Z,4.40
2018-01-08T21:36:49.451Z,4.40
2018-01-08T21:39:16.971Z,4.40
2018-01-08T21:41:44.491Z,4.40
2018-01-08T21:44:12.034Z,4.30
2018-01-08T21:46:39.575Z,4.30
2018-01-08T21:49:07.887Z,4.30
2018-01-08T21:51:35.387Z,4.30
2018-01-08T21:54:03.722Z,4.20
2018-01-08T21:56:31.266Z,4.20
2018-01-08T21:58:58.799Z,4.20
2018-01-08T22:01:27.043Z,4.10
2018-01-08T22:03:55.674Z,4.10
2018-01-08T22:06:23.188Z,4.10
2018-01-08T22:08:50.808Z,4.00
2018-01-08T22:11:18.324Z,4.10
2018-01-08T22:13:46.631Z,4.10
2018-01-08T22:16:14.155Z,4.10
2018-01-08T22:18:41.673Z,4.10
2018-01-08T22:21:09.190Z,4.00
2018-01-08T22:23:37.482Z,3.90
2018-01-08T22:26:04.994Z,3.90
2018-01-08T22:31:26.430Z,3.90
2018-01-08T22:33:53.968Z,3.90
2018-01-08T22:36:21.478Z,3.90
2018-01-08T22:44:36.340Z,3.90
2018-01-08T22:47:03.846Z,4.00
2018-01-08T22:49:31.380Z,3.90
2018-01-08T22:51:58.901Z,4.00
2018-01-08T22:54:26.431Z,4.00
2018-01-08T22:56:53.957Z,3.90
2018-01-08T22:59:22.250Z,3.90
2018-01-08T23:01:50.484Z,3.90
2018-01-08T23:04:18.005Z,3.90
2018-01-08T23:06:45.535Z,3.80
2018-01-08T23:09:13.807Z,3.80
2018-01-08T23:11:42.103Z,3.80
2018-01-08T23:14:09.617Z,3.80
2018-01-08T23:16:37.137Z,3.90
2018-01-08T23:19:04.644Z,3.90
2018-01-08T23:21:32.114Z,3.90
2018-01-08T23:24:00.386Z,3.80
2018-01-08T23:26:27.919Z,3.90
2018-01-08T23:28:55.418Z,3.80
2018-01-08T23:31:23.659Z,3.80
2018-01-08T23:33:51.173Z,3.70
2018-01-08T23:36:18.689Z,3.80
2018-01-08T23:38:46.185Z,3.80
2018-01-08T23:41:14.436Z,3.80
2018-01-08T23:43:42.671Z,3.80
2018-01-08T23:46:10.146Z,3.80
2018-01-08T23:48:38.829Z,3.80
2018-01-08T23:51:06.300Z,3.80
2018-01-08T23:53:33.780Z,3.80
2018-01-08T23:56:02.037Z,3.80
2018-01-08T23:58:29.583Z,3.80
